Time;durP1;ratioP1;P1;durP2;ratioP2;P2;SDS_P1;SDS_P2;PMS_P1;PMS_P2;Temp;Humidity;BMP_temperature;BMP_pressure;BME280_temperature;BME280_humidity;BME280_pressure;Samples;Min_cycle;Max_cycle;Signal;HPM_P1;HPM_P2
2021/05/08 00:01:48;;;;;;;7.30;1.67;;;13.40;99.90;;;;;;5071013;28;20048;-51
2021/05/08 00:04:52;;;;;;;8.70;2.25;;;13.40;99.90;;;;;;5072211;28;20045;-51
2021/05/08 00:07:56;;;;;;;9.05;1.40;;;13.30;99.90;;;;;;5071780;28;20044;-50
2021/05/08 00:11:00;;;;;;;14.35;2.20;;;13.30;99.90;;;;;;5071249;28;20048;-48
2021/05/08 00:14:05;;;;;;;18.27;2.28;;;13.20;99.90;;;;;;5071672;28;20406;-49
2021/05/08 00:17:10;;;;;;;13.57;1.95;;;13.20;99.90;;;;;;5071814;28;20446;-49
2021/05/08 00:20:16;;;;;;;12.30;1.90;;;13.10;99.90;;;;;;5071445;28;20043;-46
2021/05/08 00:23:20;;;;;;;9.35;1.55;;;13.10;99.90;;;;;;5071952;28;20059;-50
2021/05/08 00:26:24;;;;;;;7.30;1.88;;;13.00;99.90;;;;;;5071586;28;20044;-54
2021/05/08 00:29:28;;;;;;;8.02;2.17;;;12.90;99.90;;;;;;5071311;28;20044;-53
2021/05/08 00:32:34;;;;;;;8.70;2.10;;;12.80;99.90;;;;;;5071281;28;20043;-53
2021/05/08 00:35:38;;;;;;;7.78;1.58;;;12.80;99.90;;;;;;5071685;28;20057;-49
2021/05/08 00:38:42;;;;;;;8.00;1.63;;;12.70;99.90;;;;;;5071228;28;20036;-51
2021/05/08 00:41:47;;;;;;;12.65;2.80;;;12.60;99.90;;;;;;5069870;28;20051;-51
2021/05/08 00:44:51;;;;;;;16.77;3.00;;;12.60;99.90;;;;;;5070503;28;20047;-51
2021/05/08 00:48:07;;;;;;;13.38;3.42;;;12.60;99.90;;;;;;5070524;28;20081;-48
2021/05/08 00:51:11;;;;;;;10.75;2.50;;;12.50;99.90;;;;;;5070710;28;20047;-47
2021/05/08 00:54:16;;;;;;;14.63;2.40;;;12.50;99.90;;;;;;5070352;28;20055;-50
2021/05/08 00:57:20;;;;;;;9.02;1.95;;;12.60;99.90;;;;;;5070906;28;20414;-53
2021/05/08 01:00:24;;;;;;;16.77;2.03;;;12.60;99.90;;;;;;5069653;28;20055;-49
2021/05/08 01:03:28;;;;;;;7.90;1.75;;;12.60;99.90;;;;;;5070694;28;20055;-50
2021/05/08 01:06:34;;;;;;;12.73;3.63;;;12.50;99.90;;;;;;5070190;28;20048;-47
2021/05/08 01:09:38;;;;;;;16.60;3.17;;;12.60;99.90;;;;;;5070384;28;20414;-50
2021/05/08 01:12:44;;;;;;;10.63;3.00;;;12.60;99.90;;;;;;5069535;28;20521;-48
2021/05/08 01:15:48;;;;;;;15.30;2.80;;;12.60;99.90;;;;;;5070646;28;20039;-53
2021/05/08 01:18:57;;;;;;;17.55;3.17;;;12.60;99.90;;;;;;5069579;28;20055;-53
2021/05/08 01:22:03;;;;;;;9.85;2.60;;;12.70;99.90;;;;;;5069879;28;20044;-50
2021/05/08 01:25:13;;;;;;;17.42;2.95;;;12.70;99.90;;;;;;5069520;28;20047;-49
2021/05/08 01:28:18;;;;;;;14.63;2.95;;;12.70;99.90;;;;;;5069309;28;20043;-53
2021/05/08 01:31:21;;;;;;;13.65;2.67;;;12.80;99.90;;;;;;5069826;28;20067;-51
2021/05/08 01:34:26;;;;;;;21.77;3.30;;;12.70;99.90;;;;;;5061313;28;20043;-53
2021/05/08 01:37:30;;;;;;;13.23;2.78;;;12.60;99.90;;;;;;5057587;28;20058;-47
2021/05/08 01:40:38;;;;;;;18.10;3.42;;;12.50;99.90;;;;;;5068881;28;20051;-50
2021/05/08 01:43:50;;;;;;;12.82;2.38;;;12.50;99.90;;;;;;5060591;28;20422;-47
2021/05/08 01:46:54;;;;;;;12.10;2.70;;;12.40;99.90;;;;;;5061037;28;20055;-47
2021/05/08 01:50:00;;;;;;;18.85;3.15;;;12.40;99.90;;;;;;5056126;28;20055;-48
2021/05/08 01:53:05;;;;;;;10.57;1.98;;;12.30;99.90;;;;;;5068398;28;20047;-47
2021/05/08 01:56:11;;;;;;;15.05;2.67;;;12.20;99.90;;;;;;5069156;28;20077;-54
2021/05/08 01:59:15;;;;;;;16.30;2.38;;;12.20;99.90;;;;;;5069206;28;20043;-53
2021/05/08 02:02:21;;;;;;;10.10;2.30;;;12.00;99.90;;;;;;5069643;28;20047;-50
2021/05/08 02:05:31;;;;;;;12.50;2.70;;;12.00;99.90;;;;;;5070146;28;20047;-52
2021/05/08 02:08:40;;;;;;;18.50;2.55;;;11.90;99.90;;;;;;5069285;28;20055;-50
2021/05/08 02:11:48;;;;;;;23.00;2.90;;;11.90;99.90;;;;;;5069416;28;20040;-51
2021/05/08 02:14:52;;;;;;;16.38;3.08;;;11.90;99.90;;;;;;5069262;28;20521;-50
2021/05/08 02:17:55;;;;;;;13.70;2.75;;;11.90;99.90;;;;;;5068988;28;20154;-53
2021/05/08 02:21:01;;;;;;;15.50;2.83;;;12.00;99.90;;;;;;5069606;28;20395;-46
2021/05/08 02:24:06;;;;;;;19.33;3.20;;;12.10;99.90;;;;;;5069149;28;20410;-48
2021/05/08 02:27:10;;;;;;;12.25;2.92;;;12.00;99.90;;;;;;5069536;28;20422;-48
2021/05/08 02:30:19;;;;;;;14.52;3.38;;;11.80;99.90;;;;;;5069107;28;20044;-47
2021/05/08 02:33:24;;;;;;;17.08;3.72;;;11.60;99.90;;;;;;5068459;28;20418;-52
2021/05/08 02:36:28;;;;;;;15.60;3.03;;;11.50;99.90;;;;;;5069265;28;20051;-50
2021/05/08 02:39:32;;;;;;;19.35;3.55;;;11.50;99.90;;;;;;5069588;28;20032;-48
2021/05/08 02:42:37;;;;;;;13.02;2.88;;;11.50;99.90;;;;;;5068962;28;20047;-52
2021/05/08 02:45:43;;;;;;;18.40;3.50;;;11.40;99.90;;;;;;5069548;28;20517;-47
2021/05/08 02:48:47;;;;;;;17.20;3.70;;;11.30;99.90;;;;;;5069092;28;20044;-47
2021/05/08 02:51:52;;;;;;;11.45;3.40;;;11.30;99.90;;;;;;5068222;28;20047;-47
2021/05/08 02:54:55;;;;;;;20.67;3.42;;;11.20;99.90;;;;;;5068998;28;20056;-49
2021/05/08 02:58:02;;;;;;;19.90;3.47;;;11.20;99.90;;;;;;5068567;28;20044;-47
2021/05/08 03:01:07;;;;;;;19.48;5.65;;;11.10;99.90;;;;;;5069059;28;20063;-53
2021/05/08 03:04:11;;;;;;;21.70;4.60;;;11.10;99.90;;;;;;5070943;28;20052;-47
2021/05/08 03:07:15;;;;;;;16.35;4.90;;;11.10;99.90;;;;;;5072096;28;20055;-48
2021/05/08 03:10:19;;;;;;;20.00;4.80;;;11.10;99.90;;;;;;5071817;28;20410;-47
2021/05/08 03:13:25;;;;;;;19.98;6.88;;;11.10;99.90;;;;;;5071804;28;20047;-53
2021/05/08 03:16:30;;;;;;;23.77;7.15;;;11.10;99.90;;;;;;5072112;28;20044;-53
2021/05/08 03:19:36;;;;;;;20.85;5.53;;;11.10;99.90;;;;;;5072350;28;20044;-48
2021/05/08 03:22:41;;;;;;;16.42;4.68;;;11.00;99.90;;;;;;5071721;28;20051;-46
2021/05/08 03:25:45;;;;;;;15.50;5.75;;;10.90;99.90;;;;;;5072415;28;20051;-47
2021/05/08 03:28:49;;;;;;;21.05;5.47;;;10.90;99.90;;;;;;5072509;28;20067;-51
2021/05/08 03:31:53;;;;;;;21.42;6.22;;;10.80;99.90;;;;;;5071623;28;20411;-52
2021/05/08 03:34:57;;;;;;;19.58;7.18;;;10.80;99.90;;;;;;5072284;28;20043;-47
2021/05/08 03:38:03;;;;;;;15.65;5.88;;;10.90;99.90;;;;;;5071467;28;20036;-46
2021/05/08 03:41:07;;;;;;;23.60;7.15;;;10.90;99.90;;;;;;5072198;28;20047;-46
2021/05/08 03:44:11;;;;;;;21.27;6.93;;;10.90;99.90;;;;;;5072070;28;20040;-47
2021/05/08 03:47:15;;;;;;;21.38;7.45;;;11.00;99.90;;;;;;5072226;28;20043;-51
2021/05/08 03:50:19;;;;;;;22.08;6.53;;;10.90;99.90;;;;;;5072070;28;20047;-47
2021/05/08 03:53:24;;;;;;;24.35;7.88;;;10.90;99.90;;;;;;5072153;28;20051;-49
2021/05/08 03:56:29;;;;;;;18.83;7.15;;;10.90;99.90;;;;;;5071928;28;20048;-47
2021/05/08 03:59:34;;;;;;;26.92;8.00;;;10.90;99.90;;;;;;5072150;28;20044;-47
2021/05/08 04:02:38;;;;;;;22.08;6.65;;;10.90;99.90;;;;;;5072140;28;20048;-48
2021/05/08 04:05:42;;;;;;;20.73;6.60;;;10.90;99.90;;;;;;5071500;28;20035;-48
2021/05/08 04:08:47;;;;;;;26.58;6.93;;;10.90;99.90;;;;;;5072024;28;20047;-50
2021/05/08 04:11:51;;;;;;;19.50;6.38;;;10.80;99.90;;;;;;5071711;28;20048;-48
2021/05/08 04:14:55;;;;;;;22.02;6.97;;;10.80;99.90;;;;;;5071023;28;20411;-49
2021/05/08 04:17:59;;;;;;;16.58;6.55;;;10.90;99.90;;;;;;5071895;28;20051;-48
2021/05/08 04:21:04;;;;;;;20.13;6.82;;;10.90;99.90;;;;;;5066161;28;20044;-48
2021/05/08 04:24:08;;;;;;;17.70;6.18;;;11.10;99.90;;;;;;5060116;28;20433;-49
2021/05/08 04:27:13;;;;;;;18.98;5.97;;;11.20;99.90;;;;;;5071778;28;20051;-48
2021/05/08 04:30:18;;;;;;;12.20;5.47;;;11.30;99.90;;;;;;5051335;28;20059;-48
2021/05/08 04:33:23;;;;;;;24.23;6.07;;;11.50;99.90;;;;;;5070280;28;20055;-48
2021/05/08 04:36:27;;;;;;;18.42;7.07;;;11.70;99.90;;;;;;5071290;28;20044;-48
2021/05/08 04:39:32;;;;;;;16.38;5.10;;;11.80;99.90;;;;;;5071476;28;20047;-48
2021/05/08 04:42:36;;;;;;;17.60;4.68;;;12.00;99.90;;;;;;5070797;28;20521;-48
2021/05/08 04:45:42;;;;;;;21.48;5.30;;;12.20;99.90;;;;;;5071230;28;20048;-48
2021/05/08 04:48:47;;;;;;;16.77;4.38;;;12.40;99.90;;;;;;5070758;28;20048;-48
2021/05/08 04:51:54;;;;;;;10.95;3.85;;;12.60;99.90;;;;;;5067630;28;20052;-48
2021/05/08 04:54:58;;;;;;;14.20;4.50;;;13.10;99.90;;;;;;5057669;28;20403;-48
2021/05/08 04:58:06;;;;;;;14.32;3.50;;;13.70;99.90;;;;;;5069296;28;20032;-49
2021/05/08 05:01:10;;;;;;;15.20;3.80;;;14.60;99.90;;;;;;5067909;28;20047;-52
2021/05/08 05:04:14;;;;;;;18.45;3.45;;;15.90;99.90;;;;;;5064752;28;20044;-49
2021/05/08 05:07:18;;;;;;;11.05;3.20;;;17.00;99.90;;;;;;5070751;28;20063;-47
2021/05/08 05:10:23;;;;;;;9.38;3.03;;;17.60;99.90;;;;;;5057547;28;20039;-48
2021/05/08 05:13:26;;;;;;;13.80;3.30;;;18.00;99.90;;;;;;5058619;28;20040;-48
2021/05/08 05:16:30;;;;;;;10.38;2.53;;;18.50;99.90;;;;;;5057053;28;20056;-49
2021/05/08 05:19:35;;;;;;;9.43;2.70;;;19.20;99.90;;;;;;5056185;28;20521;-48
2021/05/08 05:22:39;;;;;;;10.45;3.13;;;19.80;99.90;;;;;;5069699;28;20051;-48
2021/05/08 05:25:43;;;;;;;11.48;2.90;;;20.40;99.90;;;;;;5070106;28;20055;-52
2021/05/08 05:28:47;;;;;;;8.18;2.85;;;20.00;99.90;;;;;;5070029;28;20051;-48
2021/05/08 05:31:52;;;;;;;16.73;3.72;;;19.40;99.90;;;;;;5070665;28;20254;-48
2021/05/08 05:34:56;;;;;;;11.07;3.03;;;18.90;99.90;;;;;;5070644;28;20048;-48
2021/05/08 05:38:00;;;;;;;10.95;2.80;;;19.10;99.90;;;;;;5069863;28;20048;-49
2021/05/08 05:41:04;;;;;;;11.93;3.70;;;20.20;99.90;;;;;;5070144;28;20044;-49
2021/05/08 05:44:08;;;;;;;9.88;3.60;;;20.90;99.90;;;;;;5070615;28;20055;-48
2021/05/08 05:47:22;;;;;;;7.72;2.20;;;21.20;99.90;;;;;;5070625;28;20055;-51
2021/05/08 05:50:27;;;;;;;8.70;2.30;;;21.50;99.90;;;;;;5070325;28;20048;-47
2021/05/08 05:53:30;;;;;;;9.13;2.78;;;21.30;99.90;;;;;;5070061;28;20040;-49
2021/05/08 05:56:36;;;;;;;15.07;2.95;;;21.70;99.90;;;;;;5069862;28;20541;-48
2021/05/08 05:59:41;;;;;;;7.78;2.25;;;21.60;99.90;;;;;;5069953;28;20399;-48
2021/05/08 06:02:46;;;;;;;12.55;2.92;;;21.70;99.90;;;;;;5070076;28;20403;-47
2021/05/08 06:05:50;;;;;;;7.65;2.53;;;22.40;99.90;;;;;;5069460;28;20052;-48
2021/05/08 06:08:54;;;;;;;13.60;3.20;;;22.40;99.90;;;;;;5069806;28;20047;-50
2021/05/08 06:11:58;;;;;;;12.00;2.97;;;21.20;99.90;;;;;;5069385;28;20043;-49
2021/05/08 06:15:04;;;;;;;14.18;3.60;;;19.60;99.90;;;;;;5069519;28;20529;-49
2021/05/08 06:18:08;;;;;;;14.60;3.55;;;21.00;99.90;;;;;;5069537;28;20410;-48
2021/05/08 06:21:12;;;;;;;10.57;2.33;;;20.50;99.90;;;;;;5069570;28;20047;-49
2021/05/08 06:24:16;;;;;;;8.85;2.40;;;19.50;99.90;;;;;;5069293;28;20071;-48
2021/05/08 06:27:22;;;;;;;9.15;2.63;;;20.50;99.90;;;;;;5069341;28;20055;-49
2021/05/08 06:30:26;;;;;;;13.63;3.13;;;21.70;99.90;;;;;;5068433;28;20050;-49
2021/05/08 06:33:30;;;;;;;9.80;3.20;;;21.20;99.90;;;;;;5049451;28;20040;-48
2021/05/08 06:36:34;;;;;;;6.47;2.28;;;21.00;99.90;;;;;;5049247;28;20044;-50
2021/05/08 06:39:38;;;;;;;11.65;3.10;;;20.70;99.90;;;;;;5048910;28;20035;-51
2021/05/08 06:42:42;;;;;;;10.50;3.28;;;19.20;99.90;;;;;;5049529;28;20510;-52
2021/05/08 06:45:46;;;;;;;10.13;2.20;;;19.30;99.90;;;;;;5049150;28;20056;-48
2021/05/08 06:48:51;;;;;;;7.97;2.35;;;20.20;99.90;;;;;;5049524;28;20052;-49
2021/05/08 06:51:55;;;;;;;7.63;2.53;;;22.20;99.90;;;;;;5048071;28;20257;-46
2021/05/08 06:54:59;;;;;;;12.88;3.08;;;21.80;99.90;;;;;;5049175;28;20048;-46
2021/05/08 06:58:02;;;;;;;10.32;2.90;;;21.30;99.90;;;;;;5049000;28;20040;-46
2021/05/08 07:01:08;;;;;;;11.48;3.13;;;22.80;99.90;;;;;;5049133;28;20048;-46
2021/05/08 07:04:12;;;;;;;9.70;2.78;;;23.20;99.90;;;;;;5049369;28;20052;-48
2021/05/08 07:07:16;;;;;;;11.98;3.50;;;22.50;99.90;;;;;;5048914;28;20079;-46
2021/05/08 07:10:21;;;;;;;10.50;2.97;;;21.80;99.90;;;;;;5061586;28;20562;-47
2021/05/08 07:13:25;;;;;;;11.10;2.90;;;22.40;99.90;;;;;;5069331;28;20051;-47
2021/05/08 07:16:30;;;;;;;7.13;2.67;;;23.00;99.90;;;;;;5068522;28;20047;-48
2021/05/08 07:19:34;;;;;;;8.05;2.78;;;22.80;99.90;;;;;;5073498;23;20055;-48
2021/05/08 07:22:39;;;;;;;7.68;2.58;;;24.10;99.90;;;;;;5068811;28;20044;-49
2021/05/08 07:25:43;;;;;;;8.38;3.00;;;22.70;99.90;;;;;;5068857;28;20040;-49
2021/05/08 07:28:47;;;;;;;10.00;2.88;;;24.20;99.90;;;;;;5068677;28;20043;-47
2021/05/08 07:31:51;;;;;;;11.98;2.85;;;25.10;99.90;;;;;;5068751;28;20438;-51
2021/05/08 07:34:56;;;;;;;6.90;2.65;;;24.60;99.90;;;;;;5069295;28;20194;-48
2021/05/08 07:38:01;;;;;;;10.73;2.55;;;26.20;98.90;;;;;;5069105;28;20043;-49
2021/05/08 07:41:05;;;;;;;9.43;2.75;;;25.30;97.60;;;;;;5068737;28;20048;-54
2021/05/08 07:44:09;;;;;;;10.35;2.53;;;25.40;98.10;;;;;;5069008;28;20039;-47
2021/05/08 07:47:13;;;;;;;7.22;2.30;;;24.90;98.30;;;;;;5069137;28;20055;-53
2021/05/08 07:50:17;;;;;;;8.73;2.78;;;25.60;98.00;;;;;;5068314;28;20043;-50
2021/05/08 07:53:22;;;;;;;10.20;2.70;;;25.50;97.90;;;;;;5072211;28;20044;-53
2021/05/08 07:56:26;;;;;;;7.70;2.70;;;26.90;96.20;;;;;;5072083;28;20043;-52
2021/05/08 07:59:30;;;;;;;7.80;2.42;;;27.60;95.70;;;;;;5072055;28;20043;-49
2021/05/08 08:02:35;;;;;;;9.48;2.13;;;29.30;94.30;;;;;;5072256;28;20047;-48
2021/05/08 08:05:39;;;;;;;7.60;2.38;;;24.80;96.30;;;;;;5071931;28;20044;-49
2021/05/08 08:08:43;;;;;;;8.70;2.53;;;26.00;96.50;;;;;;5071869;28;20051;-49
2021/05/08 08:11:48;;;;;;;10.43;2.60;;;26.00;95.40;;;;;;5071714;28;20073;-49
2021/05/08 08:14:52;;;;;;;9.15;2.35;;;27.20;95.10;;;;;;5071576;28;20044;-52
2021/05/08 08:17:57;;;;;;;12.90;2.50;;;28.30;94.10;;;;;;5071384;28;20509;-47
2021/05/08 08:21:01;;;;;;;8.55;2.40;;;29.60;93.00;;;;;;5071537;28;20047;-47
2021/05/08 08:24:06;;;;;;;7.90;2.05;;;29.10;91.80;;;;;;5071851;28;20052;-50
2021/05/08 08:27:11;;;;;;;10.63;2.35;;;28.40;91.70;;;;;;5071508;28;20474;-48
2021/05/08 08:30:15;;;;;;;12.05;2.70;;;30.40;90.60;;;;;;5071391;28;20048;-52
2021/05/08 08:33:19;;;;;;;9.25;2.33;;;30.90;90.10;;;;;;5071337;28;20051;-53
2021/05/08 08:36:24;;;;;;;6.03;1.95;;;31.60;88.00;;;;;;5071580;28;20044;-49
2021/05/08 08:39:31;;;;;;;10.43;2.60;;;32.40;84.70;;;;;;5071288;28;20039;-47
2021/05/08 08:42:37;;;;;;;8.55;2.20;;;31.20;83.50;;;;;;5071551;28;20407;-47
2021/05/08 08:45:43;;;;;;;7.95;2.45;;;27.10;90.50;;;;;;5071300;28;20071;-53
2021/05/08 08:48:49;;;;;;;9.55;2.40;;;26.40;90.60;;;;;;5070933;28;20040;-53
2021/05/08 08:51:53;;;;;;;14.98;2.28;;;27.90;89.50;;;;;;5070741;28;20402;-48
2021/05/08 08:54:58;;;;;;;12.35;2.40;;;28.60;88.90;;;;;;5071328;28;20047;-50
2021/05/08 08:58:06;;;;;;;6.85;2.00;;;30.30;87.30;;;;;;5071017;28;20123;-48
2021/05/08 09:01:10;;;;;;;8.80;1.92;;;31.20;85.50;;;;;;5070545;28;20056;-52
2021/05/08 09:04:16;;;;;;;10.15;2.15;;;32.30;82.30;;;;;;5071058;28;20039;-47
2021/05/08 09:07:22;;;;;;;5.72;1.83;;;34.10;79.90;;;;;;5070776;28;20048;-46
2021/05/08 09:10:28;;;;;;;9.93;2.33;;;33.40;79.90;;;;;;5070527;28;20404;-49
2021/05/08 09:13:32;;;;;;;10.82;2.08;;;35.10;76.10;;;;;;5070898;28;20052;-50
2021/05/08 09:16:36;;;;;;;8.18;2.53;;;34.20;75.30;;;;;;5070626;28;20039;-49
2021/05/08 09:19:42;;;;;;;5.95;1.90;;;29.60;79.50;;;;;;5070392;28;20047;-49
2021/05/08 09:22:48;;;;;;;8.45;2.08;;;33.00;78.10;;;;;;5070395;28;20091;-48
2021/05/08 09:26:10;;;;;;;8.32;2.22;;;35.30;75.80;;;;;;5070566;28;20513;-47
2021/05/08 09:29:20;;;;;;;8.50;2.70;;;37.70;72.80;;;;;;5070140;28;20406;-52
2021/05/08 09:32:24;;;;;;;8.80;2.85;;;37.90;70.00;;;;;;5070230;28;20063;-53
2021/05/08 09:35:30;;;;;;;7.93;3.05;;;37.70;67.00;;;;;;5070259;28;20039;-47
2021/05/08 09:38:42;;;;;;;6.55;2.30;;;37.60;66.10;;;;;;5070025;28;20063;-47
2021/05/08 09:41:47;;;;;;;6.40;2.00;;;37.80;65.90;;;;;;5070175;28;20055;-50
2021/05/08 09:44:58;;;;;;;12.00;2.78;;;38.70;63.10;;;;;;5070187;28;20040;-48
2021/05/08 09:48:15;;;;;;;6.63;2.30;;;38.60;63.70;;;;;;5070142;28;20047;-50
2021/05/08 09:51:25;;;;;;;12.75;3.03;;;39.10;62.50;;;;;;5070343;28;20043;-47
2021/05/08 09:54:29;;;;;;;8.18;1.95;;;39.90;61.80;;;;;;5070330;28;20517;-47
2021/05/08 09:57:33;;;;;;;6.93;2.20;;;39.60;59.50;;;;;;5070476;28;20052;-47
2021/05/08 10:00:38;;;;;;;7.13;2.33;;;38.40;60.40;;;;;;5070044;28;20048;-51
2021/05/08 10:03:42;;;;;;;8.52;2.55;;;38.00;61.90;;;;;;5070309;28;20406;-52
2021/05/08 10:07:08;;;;;;;7.93;2.53;;;39.30;60.30;;;;;;5070477;28;20509;-48
2021/05/08 10:10:12;;;;;;;6.60;2.45;;;41.60;58.60;;;;;;5069317;28;20047;-49
2021/05/08 10:13:16;;;;;;;14.75;3.20;;;42.00;56.60;;;;;;5069286;28;20047;-49
2021/05/08 10:16:20;;;;;;;6.68;2.65;;;42.20;55.80;;;;;;5070206;28;20065;-50
2021/05/08 10:19:28;;;;;;;8.52;2.97;;;41.30;54.80;;;;;;5069418;28;20055;-48
2021/05/08 10:22:40;;;;;;;5.70;2.63;;;40.20;56.20;;;;;;5069947;28;20434;-48
2021/05/08 10:25:45;;;;;;;8.95;2.50;;;39.60;57.50;;;;;;5069790;28;20122;-48
2021/05/08 10:28:49;;;;;;;8.68;2.65;;;40.50;55.90;;;;;;5069417;28;20410;-53
2021/05/08 10:32:01;;;;;;;6.60;2.53;;;38.60;56.40;;;;;;5069504;28;20040;-51
2021/05/08 10:35:05;;;;;;;7.03;2.70;;;36.10;58.90;;;;;;5069913;28;20055;-47
2021/05/08 10:38:23;;;;;;;7.40;2.28;;;31.30;61.20;;;;;;5069070;28;20047;-47
2021/05/08 10:41:51;;;;;;;7.05;2.03;;;33.40;61.80;;;;;;5069311;28;20040;-53
2021/05/08 10:44:56;;;;;;;8.20;2.90;;;37.10;60.00;;;;;;5069559;28;20537;-48
2021/05/08 10:48:03;;;;;;;8.10;3.10;;;37.00;57.20;;;;;;5069389;28;20044;-48
2021/05/08 10:51:08;;;;;;;7.88;2.58;;;38.20;57.70;;;;;;5069419;28;20337;-50
2021/05/08 10:54:50;;;;;;;9.30;2.58;;;37.90;56.70;;;;;;5069117;28;20052;-48
2021/05/08 10:58:21;;;;;;;6.88;2.67;;;36.20;57.90;;;;;;5069551;28;20047;-46
2021/05/08 11:01:46;;;;;;;5.97;2.15;;;34.90;60.60;;;;;;5059699;28;20052;-47
2021/05/08 11:05:39;;;;;;;5.95;2.10;;;35.20;58.70;;;;;;5069425;28;20052;-51
2021/05/08 11:08:46;;;;;;;7.30;2.30;;;34.90;59.40;;;;;;5018503;28;20410;-50
2021/05/08 11:11:50;;;;;;;5.15;1.77;;;34.50;58.00;;;;;;5069023;28;20051;-48
2021/05/08 11:14:55;;;;;;;8.15;2.05;;;32.90;60.00;;;;;;5069478;28;20513;-50
2021/05/08 11:18:02;;;;;;;3.92;1.80;;;34.70;59.80;;;;;;5068983;28;20067;-53
2021/05/08 11:21:13;;;;;;;4.97;1.75;;;36.10;58.30;;;;;;5068672;28;20514;-48
2021/05/08 11:24:33;;;;;;;9.82;1.73;;;38.20;56.90;;;;;;5069059;28;20518;-50
2021/05/08 11:27:37;;;;;;;5.47;1.90;;;39.70;56.20;;;;;;5070551;28;20028;-52
2021/05/08 11:30:51;;;;;;;6.82;2.40;;;40.20;55.80;;;;;;5070268;28;20513;-46
2021/05/08 11:34:18;;;;;;;6.40;2.35;;;35.30;58.20;;;;;;5072583;28;20525;-48
2021/05/08 11:37:22;;;;;;;6.05;1.77;;;33.00;58.20;;;;;;5072679;28;20418;-48
2021/05/08 11:40:31;;;;;;;10.90;1.90;;;34.40;58.60;;;;;;5072113;28;20521;-48
2021/05/08 11:43:35;;;;;;;5.45;2.00;;;34.20;59.30;;;;;;5072415;28;20059;-45
2021/05/08 11:46:39;;;;;;;6.85;1.95;;;33.60;60.00;;;;;;5072529;28;20044;-47
2021/05/08 11:50:00;;;;;;;5.35;1.80;;;35.10;60.40;;;;;;5070939;28;20044;-48
2021/05/08 11:53:18;;;;;;;8.10;1.80;;;35.70;58.10;;;;;;5058542;28;20039;-49
2021/05/08 11:56:32;;;;;;;5.57;1.80;;;34.10;57.50;;;;;;5072761;28;20052;-48
2021/05/08 11:59:36;;;;;;;5.38;1.58;;;34.00;57.70;;;;;;5052336;28;20052;-49
2021/05/08 12:02:40;;;;;;;4.85;1.48;;;35.50;58.90;;;;;;5052624;28;20040;-47
2021/05/08 12:05:47;;;;;;;4.72;1.58;;;36.30;56.60;;;;;;5058203;28;20055;-48
2021/05/08 12:08:54;;;;;;;4.38;1.50;;;37.70;54.40;;;;;;5072649;28;20402;-53
2021/05/08 12:12:01;;;;;;;5.20;1.33;;;38.20;54.00;;;;;;5071996;28;20553;-47
2021/05/08 12:15:06;;;;;;;5.60;1.80;;;39.00;54.00;;;;;;5072207;28;20055;-46
2021/05/08 12:18:13;;;;;;;4.53;1.55;;;38.80;53.40;;;;;;5072348;28;20047;-47
2021/05/08 12:21:17;;;;;;;4.13;1.58;;;38.90;53.80;;;;;;5071719;28;20047;-49
2021/05/08 12:24:21;;;;;;;4.30;1.63;;;38.60;54.00;;;;;;5067273;28;20048;-53
2021/05/08 12:27:26;;;;;;;6.53;1.88;;;37.10;55.20;;;;;;5056982;28;20142;-48
2021/05/08 12:30:32;;;;;;;8.73;2.67;;;37.70;55.70;;;;;;5055408;28;20044;-48
2021/05/08 12:33:36;;;;;;;6.78;1.63;;;37.40;55.30;;;;;;5051863;28;20533;-48
2021/05/08 12:36:57;;;;;;;4.53;1.40;;;36.50;56.00;;;;;;5049849;28;20044;-47
2021/05/08 12:40:01;;;;;;;6.68;1.80;;;35.20;57.70;;;;;;5057181;28;20059;-48
2021/05/08 12:43:05;;;;;;;3.97;1.80;;;35.20;57.80;;;;;;5050114;28;20044;-47
2021/05/08 12:46:14;;;;;;;8.68;1.85;;;35.30;57.20;;;;;;5049459;28;20039;-47
2021/05/08 12:49:20;;;;;;;7.15;1.75;;;34.80;56.90;;;;;;5065405;28;20051;-49
2021/05/08 12:52:25;;;;;;;7.47;1.88;;;33.50;57.90;;;;;;5068964;28;20402;-46
2021/05/08 12:55:32;;;;;;;8.25;1.75;;;33.50;58.00;;;;;;5068266;28;20040;-47
2021/05/08 12:58:38;;;;;;;5.38;1.63;;;33.50;58.00;;;;;;5061393;28;20044;-47
2021/05/08 13:01:44;;;;;;;3.92;1.67;;;33.30;58.30;;;;;;5064546;28;20040;-47
2021/05/08 13:04:50;;;;;;;4.03;1.48;;;32.90;59.40;;;;;;5064866;28;20111;-47
2021/05/08 13:08:02;;;;;;;8.32;1.80;;;33.40;58.20;;;;;;5062088;28;20039;-48
2021/05/08 13:11:06;;;;;;;6.15;1.48;;;33.40;59.40;;;;;;5058071;28;20036;-47
2021/05/08 13:14:20;;;;;;;5.20;1.70;;;33.10;60.00;;;;;;5068049;28;20052;-47
2021/05/08 13:17:25;;;;;;;6.85;1.88;;;32.70;60.00;;;;;;5056035;28;20399;-51
2021/05/08 13:20:37;;;;;;;4.82;1.85;;;32.70;61.00;;;;;;5067550;28;20051;-51
2021/05/08 13:23:41;;;;;;;4.88;1.70;;;32.70;59.30;;;;;;5069815;28;20255;-49
2021/05/08 13:26:45;;;;;;;5.13;2.00;;;32.80;59.40;;;;;;5070226;28;20048;-51
2021/05/08 13:29:50;;;;;;;6.43;1.92;;;33.20;59.10;;;;;;5070543;28;20047;-54
2021/05/08 13:32:56;;;;;;;4.72;1.80;;;33.50;58.60;;;;;;5069647;28;20048;-52
2021/05/08 13:36:03;;;;;;;6.57;1.80;;;32.80;58.30;;;;;;5070602;28;20044;-48
2021/05/08 13:39:07;;;;;;;10.45;2.83;;;31.70;59.80;;;;;;5069614;28;20044;-49
2021/05/08 13:42:14;;;;;;;5.00;1.70;;;31.90;61.00;;;;;;5069270;28;20044;-48
2021/05/08 13:45:18;;;;;;;5.82;1.58;;;31.00;58.60;;;;;;5070347;28;20060;-49
2021/05/08 13:48:24;;;;;;;6.95;1.80;;;30.80;62.30;;;;;;5069225;28;20052;-51
2021/05/08 13:51:28;;;;;;;6.78;1.90;;;30.40;62.30;;;;;;5069471;28;20047;-48
2021/05/08 13:54:32;;;;;;;5.70;1.98;;;30.20;63.20;;;;;;5068907;28;20448;-47
2021/05/08 13:57:36;;;;;;;4.10;1.60;;;29.70;64.90;;;;;;5069953;28;20048;-54
2021/05/08 14:00:40;;;;;;;7.18;2.03;;;28.70;62.60;;;;;;5069820;28;20039;-53
2021/05/08 14:03:46;;;;;;;5.63;1.90;;;28.40;63.40;;;;;;5069898;28;20055;-51
2021/05/08 14:06:50;;;;;;;7.53;2.08;;;28.80;66.10;;;;;;5070071;28;20063;-50
2021/05/08 14:09:56;;;;;;;7.25;2.17;;;29.10;65.00;;;;;;5069518;28;20521;-47
2021/05/08 14:13:01;;;;;;;5.65;1.65;;;29.20;65.80;;;;;;5069371;28;20050;-49
2021/05/08 14:16:07;;;;;;;4.72;1.90;;;28.80;65.20;;;;;;5069756;28;20509;-50
2021/05/08 14:19:14;;;;;;;8.63;2.20;;;28.80;65.80;;;;;;5069739;28;20044;-50
2021/05/08 14:22:18;;;;;;;8.43;1.92;;;28.80;63.60;;;;;;5069372;28;20518;-49
2021/05/08 14:25:23;;;;;;;6.10;2.05;;;29.10;61.60;;;;;;5069321;28;20051;-52
2021/05/08 14:28:27;;;;;;;6.95;2.10;;;29.20;63.30;;;;;;5069578;28;20062;-50
2021/05/08 14:31:32;;;;;;;9.40;2.22;;;29.30;66.50;;;;;;5069014;28;20043;-53
2021/05/08 14:34:36;;;;;;;9.70;2.22;;;29.30;66.30;;;;;;5069537;28;20444;-50
2021/05/08 14:37:41;;;;;;;6.00;1.70;;;29.30;64.40;;;;;;5069796;28;20039;-52
2021/05/08 14:40:57;;;;;;;4.80;1.77;;;29.20;64.10;;;;;;5069222;28;20051;-47
2021/05/08 14:44:01;;;;;;;5.45;1.92;;;28.60;67.40;;;;;;5069475;28;20050;-49
2021/05/08 14:47:05;;;;;;;8.45;2.42;;;28.40;65.00;;;;;;5069222;28;20048;-49
2021/05/08 14:50:09;;;;;;;5.60;2.58;;;28.30;68.40;;;;;;5069334;28;20039;-51
2021/05/08 14:53:14;;;;;;;7.53;2.72;;;28.10;68.60;;;;;;5068986;28;20048;-48
2021/05/08 14:56:18;;;;;;;6.65;2.53;;;27.90;68.80;;;;;;5069133;28;20517;-49
2021/05/08 14:59:22;;;;;;;6.22;2.50;;;28.00;69.20;;;;;;5068833;28;20044;-48
2021/05/08 15:02:26;;;;;;;9.00;2.17;;;27.90;70.40;;;;;;5072951;28;20040;-48
2021/05/08 15:05:31;;;;;;;6.78;2.03;;;27.70;68.60;;;;;;5073499;28;20039;-50
2021/05/08 15:08:35;;;;;;;8.63;2.60;;;27.40;67.90;;;;;;5073855;28;20518;-49
2021/05/08 15:11:39;;;;;;;5.82;1.90;;;27.10;66.20;;;;;;5053497;28;20072;-50
2021/05/08 15:14:43;;;;;;;6.63;1.75;;;26.90;68.10;;;;;;5052707;28;20399;-48
2021/05/08 15:17:47;;;;;;;8.98;3.03;;;27.00;69.80;;;;;;5053460;28;20064;-54
2021/05/08 15:20:51;;;;;;;8.80;2.15;;;27.00;70.90;;;;;;5053160;28;20048;-53
2021/05/08 15:23:55;;;;;;;7.80;1.85;;;27.00;69.20;;;;;;5053068;28;20040;-53
2021/05/08 15:27:01;;;;;;;5.95;2.30;;;27.00;70.30;;;;;;5053295;28;20048;-54
2021/05/08 15:30:06;;;;;;;5.88;2.00;;;26.90;69.40;;;;;;5052800;28;20415;-53
2021/05/08 15:33:10;;;;;;;8.00;2.40;;;26.80;69.90;;;;;;5052705;28;20044;-53
2021/05/08 15:36:14;;;;;;;4.25;2.13;;;26.70;70.10;;;;;;5052531;28;20052;-53
2021/05/08 15:39:19;;;;;;;4.45;1.90;;;26.50;67.50;;;;;;5052876;28;20063;-51
2021/05/08 15:42:23;;;;;;;4.18;2.10;;;25.90;68.70;;;;;;5052722;28;20052;-51
2021/05/08 15:45:28;;;;;;;7.68;2.28;;;26.10;69.30;;;;;;5052950;28;20399;-54
2021/05/08 15:48:32;;;;;;;6.28;2.55;;;26.10;67.70;;;;;;5052870;28;20044;-54
2021/05/08 15:51:36;;;;;;;6.78;2.20;;;26.00;67.30;;;;;;5052461;28;20048;-52
2021/05/08 15:54:40;;;;;;;3.95;2.30;;;25.80;69.20;;;;;;5071120;28;20043;-53
2021/05/08 15:57:45;;;;;;;5.85;2.35;;;25.90;68.50;;;;;;5072656;28;20055;-53
2021/05/08 16:00:49;;;;;;;5.68;2.38;;;25.90;70.80;;;;;;5072437;28;20127;-52
2021/05/08 16:03:53;;;;;;;5.32;2.40;;;25.90;69.30;;;;;;5071970;28;20047;-51